sensor_id;sensor_type;location;lat;lon;timestamp;pressure;altitude;pressure_sealevel;temperature;humidity
61870;BME280;47810;42.264;23.826;2023-02-12T00:00:42;94668.50;;;-2.32;51.95
61870;BME280;47810;42.264;23.826;2023-02-12T00:03:08;94646.03;;;-2.15;50.71
61870;BME280;47810;42.264;23.826;2023-02-12T00:05:37;94642.56;;;-2.11;51.21
61870;BME280;47810;42.264;23.826;2023-02-12T00:08:03;94646.03;;;-2.12;51.11
61870;BME280;47810;42.264;23.826;2023-02-12T00:10:29;94654.63;;;-2.06;50.54
61870;BME280;47810;42.264;23.826;2023-02-12T00:12:54;94646.03;;;-2.08;50.70
61870;BME280;47810;42.264;23.826;2023-02-12T00:15:20;94648.63;;;-2.15;51.14
61870;BME280;47810;42.264;23.826;2023-02-12T00:17:45;94643.50;;;-2.27;52.62
61870;BME280;47810;42.264;23.826;2023-02-12T00:20:11;94638.31;;;-2.28;50.79
61870;BME280;47810;42.264;23.826;2023-02-12T00:22:36;94631.44;;;-2.32;50.81
61870;BME280;47810;42.264;23.826;2023-02-12T00:25:02;94625.34;;;-2.18;51.05
61870;BME280;47810;42.264;23.826;2023-02-12T00:27:30;94630.56;;;-2.28;51.37
61870;BME280;47810;42.264;23.826;2023-02-12T00:29:56;94632.28;;;-2.29;50.51
61870;BME280;47810;42.264;23.826;2023-02-12T00:32:21;94618.47;;;-2.23;51.03
61870;BME280;47810;42.264;23.826;2023-02-12T00:34:47;94626.13;;;-1.97;50.31
61870;BME280;47810;42.264;23.826;2023-02-12T00:37:13;94614.97;;;-2.05;50.69
61870;BME280;47810;42.264;23.826;2023-02-12T00:39:39;94606.38;;;-2.17;51.02
61870;BME280;47810;42.264;23.826;2023-02-12T00:42:04;94599.53;;;-2.27;52.32
61870;BME280;47810;42.264;23.826;2023-02-12T00:44:30;94601.31;;;-2.44;52.79
61870;BME280;47810;42.264;23.826;2023-02-12T00:46:55;94617.69;;;-2.42;52.16
61870;BME280;47810;42.264;23.826;2023-02-12T00:49:29;94611.72;;;-2.53;52.88
61870;BME280;47810;42.264;23.826;2023-02-12T00:51:59;94609.94;;;-2.48;52.84
61870;BME280;47810;42.264;23.826;2023-02-12T00:54:26;94613.41;;;-2.52;51.97
61870;BME280;47810;42.264;23.826;2023-02-12T00:56:51;94609.88;;;-2.30;51.72
61870;BME280;47810;42.264;23.826;2023-02-12T00:59:17;94614.16;;;-2.21;52.30
61870;BME280;47810;42.264;23.826;2023-02-12T01:01:42;94611.63;;;-2.38;50.49
61870;BME280;47810;42.264;23.826;2023-02-12T01:04:08;94607.28;;;-2.25;47.92
61870;BME280;47810;42.264;23.826;2023-02-12T01:06:33;94597.69;;;-2.03;46.68
61870;BME280;47810;42.264;23.826;2023-02-12T01:08:59;94589.78;;;-1.80;46.44
61870;BME280;47810;42.264;23.826;2023-02-12T01:11:26;94581.97;;;-1.70;45.36
61870;BME280;47810;42.264;23.826;2023-02-12T01:13:51;94567.19;;;-1.55;44.53
61870;BME280;47810;42.264;23.826;2023-02-12T01:16:19;94570.56;;;-1.44;44.28
61870;BME280;47810;42.264;23.826;2023-02-12T01:18:44;94557.66;;;-1.50;44.58
61870;BME280;47810;42.264;23.826;2023-02-12T01:21:12;94561.19;;;-1.60;45.02
61870;BME280;47810;42.264;23.826;2023-02-12T01:23:39;94551.66;;;-1.54;47.16
61870;BME280;47810;42.264;23.826;2023-02-12T01:26:05;94553.34;;;-1.50;47.58
61870;BME280;47810;42.264;23.826;2023-02-12T01:28:32;94544.84;;;-1.70;48.91
61870;BME280;47810;42.264;23.826;2023-02-12T01:30:58;94547.53;;;-1.84;49.19
61870;BME280;47810;42.264;23.826;2023-02-12T01:33:25;94531.34;;;-2.11;49.35
61870;BME280;47810;42.264;23.826;2023-02-12T01:35:50;94536.53;;;-2.17;49.05
61870;BME280;47810;42.264;23.826;2023-02-12T01:38:16;94534.78;;;-2.13;48.86
61870;BME280;47810;42.264;23.826;2023-02-12T01:40:41;94528.63;;;-1.89;46.37
61870;BME280;47810;42.264;23.826;2023-02-12T01:43:10;94516.50;;;-1.87;46.24
61870;BME280;47810;42.264;23.826;2023-02-12T01:48:01;94512.13;;;-1.76;45.16
61870;BME280;47810;42.264;23.826;2023-02-12T01:50:27;94497.47;;;-1.80;46.45
61870;BME280;47810;42.264;23.826;2023-02-12T01:52:54;94519.06;;;-1.81;46.83
61870;BME280;47810;42.264;23.826;2023-02-12T01:55:21;94513.88;;;-1.81;46.85
61870;BME280;47810;42.264;23.826;2023-02-12T01:57:47;94512.97;;;-1.77;46.74
61870;BME280;47810;42.264;23.826;2023-02-12T02:00:17;94533.69;;;-1.77;46.88
61870;BME280;47810;42.264;23.826;2023-02-12T02:02:57;94532.72;;;-1.60;45.88
61870;BME280;47810;42.264;23.826;2023-02-12T02:05:29;94535.38;;;-1.70;46.90
61870;BME280;47810;42.264;23.826;2023-02-12T02:07:56;94542.13;;;-1.50;45.28
61870;BME280;47810;42.264;23.826;2023-02-12T02:10:22;94533.50;;;-1.52;45.57
61870;BME280;47810;42.264;23.826;2023-02-12T02:12:47;94545.72;;;-1.67;46.72
61870;BME280;47810;42.264;23.826;2023-02-12T02:15:31;94542.25;;;-1.66;46.84
61870;BME280;47810;42.264;23.826;2023-02-12T02:18:07;94550.94;;;-1.73;46.43
61870;BME280;47810;42.264;23.826;2023-02-12T02:20:41;94552.69;;;-1.81;47.88
61870;BME280;47810;42.264;23.826;2023-02-12T02:25:52;94551.13;;;-2.06;48.86
61870;BME280;47810;42.264;23.826;2023-02-12T02:41:02;94533.19;;;-2.34;51.82
61870;BME280;47810;42.264;23.826;2023-02-12T02:43:32;94528.81;;;-2.26;51.27
61870;BME280;47810;42.264;23.826;2023-02-12T02:46:42;94523.84;;;-2.67;52.24
61870;BME280;47810;42.264;23.826;2023-02-12T02:48:51;94529.00;;;-2.60;53.17
61870;BME280;47810;42.264;23.826;2023-02-12T02:51:21;94534.91;;;-2.33;50.91
61870;BME280;47810;42.264;23.826;2023-02-12T02:53:53;94522.72;;;-2.16;49.10
61870;BME280;47810;42.264;23.826;2023-02-12T02:56:22;94542.72;;;-2.42;52.58
61870;BME280;47810;42.264;23.826;2023-02-12T02:58:56;94541.88;;;-2.52;52.78
61870;BME280;47810;42.264;23.826;2023-02-12T03:01:26;94554.69;;;-2.23;51.04
61870;BME280;47810;42.264;23.826;2023-02-12T03:04:11;94547.00;;;-2.40;49.82
61870;BME280;47810;42.264;23.826;2023-02-12T03:06:40;94528.81;;;-2.23;48.59
61870;BME280;47810;42.264;23.826;2023-02-12T03:09:19;94528.81;;;-2.21;50.60
61870;BME280;47810;42.264;23.826;2023-02-12T03:11:46;94536.59;;;-2.26;51.45
61870;BME280;47810;42.264;23.826;2023-02-12T03:14:14;94531.41;;;-2.18;49.04
61870;BME280;47810;42.264;23.826;2023-02-12T03:19:27;94542.59;;;-2.18;49.23
61870;BME280;47810;42.264;23.826;2023-02-12T03:26:49;94549.47;;;-2.17;51.16
61870;BME280;47810;42.264;23.826;2023-02-12T03:29:16;94554.59;;;-2.04;49.36
61870;BME280;47810;42.264;23.826;2023-02-12T03:31:58;94542.53;;;-2.08;48.97
61870;BME280;47810;42.264;23.826;2023-02-12T03:34:38;94545.94;;;-1.99;49.41
61870;BME280;47810;42.264;23.826;2023-02-12T03:39:34;94537.09;;;-1.69;48.31
61870;BME280;47810;42.264;23.826;2023-02-12T03:42:04;94542.31;;;-1.75;47.96
61870;BME280;47810;42.264;23.826;2023-02-12T03:47:18;94530.13;;;-1.62;48.58
61870;BME280;47810;42.264;23.826;2023-02-12T03:50:31;94545.69;;;-1.63;50.07
61870;BME280;47810;42.264;23.826;2023-02-12T03:52:31;94535.25;;;-1.57;49.90
61870;BME280;47810;42.264;23.826;2023-02-12T03:54:56;94538.81;;;-1.71;49.49
61870;BME280;47810;42.264;23.826;2023-02-12T03:57:23;94546.56;;;-1.66;49.93
61870;BME280;47810;42.264;23.826;2023-02-12T03:59:52;94537.09;;;-1.72;51.10
61870;BME280;47810;42.264;23.826;2023-02-12T04:02:18;94542.06;;;-1.44;49.96
61870;BME280;47810;42.264;23.826;2023-02-12T04:04:44;94535.19;;;-1.47;49.57
61870;BME280;47810;42.264;23.826;2023-02-12T04:07:12;94539.47;;;-1.43;50.12
61870;BME280;47810;42.264;23.826;2023-02-12T04:09:38;94533.38;;;-1.37;51.51
61870;BME280;47810;42.264;23.826;2023-02-12T04:14:40;94534.94;;;-1.22;52.43
61870;BME280;47810;42.264;23.826;2023-02-12T04:27:32;94535.44;;;-0.85;53.66
61870;BME280;47810;42.264;23.826;2023-02-12T04:30:04;94536.09;;;-0.67;53.97
61870;BME280;47810;42.264;23.826;2023-02-12T04:35:16;94542.81;;;-0.48;54.03
61870;BME280;47810;42.264;23.826;2023-02-12T04:38:29;94540.81;;;-0.28;53.51
61870;BME280;47810;42.264;23.826;2023-02-12T04:40:34;94549.19;;;-0.07;52.82
61870;BME280;47810;42.264;23.826;2023-02-12T04:43:00;94549.91;;;0.03;52.46
61870;BME280;47810;42.264;23.826;2023-02-12T04:45:28;94545.25;;;0.28;51.63
61870;BME280;47810;42.264;23.826;2023-02-12T04:47:54;94548.50;;;0.42;51.46
61870;BME280;47810;42.264;23.826;2023-02-12T04:50:20;94552.78;;;0.44;51.77
61870;BME280;47810;42.264;23.826;2023-02-12T04:52:47;94557.16;;;0.41;52.01
61870;BME280;47810;42.264;23.826;2023-02-12T04:55:13;94552.75;;;0.46;52.42
61870;BME280;47810;42.264;23.826;2023-02-12T05:00:10;94563.97;;;0.50;53.07
61870;BME280;47810;42.264;23.826;2023-02-12T05:02:37;94561.31;;;0.51;53.43
61870;BME280;47810;42.264;23.826;2023-02-12T05:05:04;94569.13;;;0.53;53.56
61870;BME280;47810;42.264;23.826;2023-02-12T05:07:29;94569.06;;;0.56;54.12
61870;BME280;47810;42.264;23.826;2023-02-12T05:09:56;94567.28;;;0.59;54.48
61870;BME280;47810;42.264;23.826;2023-02-12T05:12:22;94568.94;;;0.63;54.07
61870;BME280;47810;42.264;23.826;2023-02-12T05:14:47;94572.34;;;0.68;54.52
61870;BME280;47810;42.264;23.826;2023-02-12T05:17:15;94584.44;;;0.69;54.47
61870;BME280;47810;42.264;23.826;2023-02-12T05:19:40;94585.03;;;0.85;54.70
61870;BME280;47810;42.264;23.826;2023-02-12T05:22:06;94587.53;;;0.91;54.42
61870;BME280;47810;42.264;23.826;2023-02-12T05:24:33;94590.28;;;0.82;54.34
61870;BME280;47810;42.264;23.826;2023-02-12T05:26:58;94597.94;;;0.91;54.57
61870;BME280;47810;42.264;23.826;2023-02-12T05:29:24;94597.97;;;0.90;54.47
61870;BME280;47810;42.264;23.826;2023-02-12T05:31:51;94600.53;;;0.91;54.36
61870;BME280;47810;42.264;23.826;2023-02-12T05:34:18;94604.03;;;0.90;54.28
61870;BME280;47810;42.264;23.826;2023-02-12T05:36:44;94610.00;;;0.97;54.27
61870;BME280;47810;42.264;23.826;2023-02-12T05:39:10;94616.06;;;0.96;54.49
61870;BME280;47810;42.264;23.826;2023-02-12T05:41:37;94625.59;;;0.96;54.43
61870;BME280;47810;42.264;23.826;2023-02-12T05:44:04;94634.44;;;0.87;54.56
61870;BME280;47810;42.264;23.826;2023-02-12T05:46:31;94645.53;;;0.97;53.94
61870;BME280;47810;42.264;23.826;2023-02-12T05:48:58;94629.09;;;0.93;54.37
61870;BME280;47810;42.264;23.826;2023-02-12T05:51:25;94633.28;;;1.03;53.96
61870;BME280;47810;42.264;23.826;2023-02-12T05:53:54;94642.00;;;0.99;53.90
61870;BME280;47810;42.264;23.826;2023-02-12T05:56:23;94647.19;;;1.01;53.93
61870;BME280;47810;42.264;23.826;2023-02-12T05:58:56;94636.69;;;1.07;53.56
61870;BME280;47810;42.264;23.826;2023-02-12T06:01:23;94634.94;;;1.07;53.05
61870;BME280;47810;42.264;23.826;2023-02-12T06:03:50;94635.13;;;0.97;53.26
61870;BME280;47810;42.264;23.826;2023-02-12T06:06:16;94627.16;;;1.07;53.27
61870;BME280;47810;42.264;23.826;2023-02-12T06:08:46;94623.31;;;1.28;52.46
61870;BME280;47810;42.264;23.826;2023-02-12T06:11:12;94632.88;;;1.28;52.44
61870;BME280;47810;42.264;23.826;2023-02-12T06:13:38;94636.31;;;1.28;51.69
61870;BME280;47810;42.264;23.826;2023-02-12T06:16:05;94638.75;;;1.39;51.16
61870;BME280;47810;42.264;23.826;2023-02-12T06:18:35;94641.47;;;1.33;51.21
61870;BME280;47810;42.264;23.826;2023-02-12T06:21:03;94640.72;;;1.25;51.89
61870;BME280;47810;42.264;23.826;2023-02-12T06:23:30;94629.50;;;1.21;52.45
61870;BME280;47810;42.264;23.826;2023-02-12T06:25:56;94623.41;;;1.24;52.03
61870;BME280;47810;42.264;23.826;2023-02-12T06:28:24;94623.56;;;1.16;51.13
61870;BME280;47810;42.264;23.826;2023-02-12T06:30:52;94625.22;;;1.19;50.30
61870;BME280;47810;42.264;23.826;2023-02-12T06:35:48;94630.78;;;0.97;49.99
61870;BME280;47810;42.264;23.826;2023-02-12T06:38:13;94632.72;;;0.83;50.05
61870;BME280;47810;42.264;23.826;2023-02-12T06:40:39;94648.16;;;0.95;50.11
61870;BME280;47810;42.264;23.826;2023-02-12T06:43:05;94642.84;;;1.01;49.55
61870;BME280;47810;42.264;23.826;2023-02-12T06:45:31;94640.13;;;1.09;50.19
61870;BME280;47810;42.264;23.826;2023-02-12T06:47:59;94648.06;;;1.01;49.89
61870;BME280;47810;42.264;23.826;2023-02-12T06:50:34;94643.78;;;0.97;51.34
61870;BME280;47810;42.264;23.826;2023-02-12T06:53:00;94653.47;;;0.87;50.93
61870;BME280;47810;42.264;23.826;2023-02-12T06:55:26;94656.31;;;0.70;52.31
61870;BME280;47810;42.264;23.826;2023-02-12T06:57:53;94656.41;;;0.64;54.22
61870;BME280;47810;42.264;23.826;2023-02-12T07:00:20;94671.31;;;0.50;55.38
61870;BME280;47810;42.264;23.826;2023-02-12T07:02:50;94676.56;;;0.47;56.63
61870;BME280;47810;42.264;23.826;2023-02-12T07:05:17;94681.06;;;0.34;58.39
61870;BME280;47810;42.264;23.826;2023-02-12T07:07:43;94673.25;;;0.36;59.43
61870;BME280;47810;42.264;23.826;2023-02-12T07:10:09;94684.63;;;0.27;60.28
61870;BME280;47810;42.264;23.826;2023-02-12T07:15:04;94692.63;;;0.10;61.92
61870;BME280;47810;42.264;23.826;2023-02-12T07:17:31;94697.06;;;-0.01;63.44
61870;BME280;47810;42.264;23.826;2023-02-12T07:19:57;94690.34;;;-0.19;64.82
61870;BME280;47810;42.264;23.826;2023-02-12T07:27:19;94691.69;;;0.13;63.97
61870;BME280;47810;42.264;23.826;2023-02-12T07:29:45;94696.25;;;-0.03;64.70
61870;BME280;47810;42.264;23.826;2023-02-12T07:32:11;94700.56;;;-0.04;65.56
61870;BME280;47810;42.264;23.826;2023-02-12T07:34:44;94698.88;;;-0.08;65.73
61870;BME280;47810;42.264;23.826;2023-02-12T07:37:14;94704.88;;;-0.04;66.11
61870;BME280;47810;42.264;23.826;2023-02-12T07:42:11;94699.59;;;0.05;65.89
61870;BME280;47810;42.264;23.826;2023-02-12T07:44:40;94700.47;;;0.04;66.64
61870;BME280;47810;42.264;23.826;2023-02-12T07:47:06;94698.94;;;-0.14;67.50
61870;BME280;47810;42.264;23.826;2023-02-12T07:49:43;94704.06;;;-0.08;67.11
61870;BME280;47810;42.264;23.826;2023-02-12T07:52:10;94703.22;;;-0.08;67.74
61870;BME280;47810;42.264;23.826;2023-02-12T07:57:07;94710.97;;;-0.07;67.35
61870;BME280;47810;42.264;23.826;2023-02-12T07:59:32;94713.44;;;0.06;67.07
61870;BME280;47810;42.264;23.826;2023-02-12T08:01:58;94714.28;;;0.06;67.29
61870;BME280;47810;42.264;23.826;2023-02-12T08:04:39;94725.47;;;0.14;67.89
61870;BME280;47810;42.264;23.826;2023-02-12T08:07:04;94721.91;;;0.21;66.79
61870;BME280;47810;42.264;23.826;2023-02-12T08:12:12;94725.25;;;0.33;66.19
61870;BME280;47810;42.264;23.826;2023-02-12T08:19:54;94712.75;;;0.62;65.67
61870;BME280;47810;42.264;23.826;2023-02-12T08:25:06;94723.16;;;0.59;65.03
61870;BME280;47810;42.264;23.826;2023-02-12T08:27:46;94732.88;;;0.46;65.88
61870;BME280;47810;42.264;23.826;2023-02-12T08:30:15;94744.16;;;0.44;66.56
61870;BME280;47810;42.264;23.826;2023-02-12T08:32:42;94746.81;;;0.38;66.51
61870;BME280;47810;42.264;23.826;2023-02-12T08:37:55;94745.91;;;0.42;66.07
61870;BME280;47810;42.264;23.826;2023-02-12T08:40:20;94750.41;;;0.28;66.20
61870;BME280;47810;42.264;23.826;2023-02-12T08:42:51;94745.00;;;0.46;65.63
61870;BME280;47810;42.264;23.826;2023-02-12T08:45:17;94763.28;;;0.37;66.11
61870;BME280;47810;42.264;23.826;2023-02-12T08:47:51;94756.31;;;0.42;65.66
61870;BME280;47810;42.264;23.826;2023-02-12T08:50:17;94766.69;;;0.42;65.00
61870;BME280;47810;42.264;23.826;2023-02-12T08:52:48;94766.88;;;0.27;65.19
61870;BME280;47810;42.264;23.826;2023-02-12T08:55:20;94765.13;;;0.26;65.31
61870;BME280;47810;42.264;23.826;2023-02-12T08:57:51;94763.38;;;0.28;65.57
61870;BME280;47810;42.264;23.826;2023-02-12T09:00:31;94771.34;;;0.12;65.53
61870;BME280;47810;42.264;23.826;2023-02-12T09:02:56;94767.84;;;0.16;65.85
61870;BME280;47810;42.264;23.826;2023-02-12T09:05:28;94771.41;;;0.08;65.71
61870;BME280;47810;42.264;23.826;2023-02-12T09:07:54;94768.63;;;0.25;65.54
61870;BME280;47810;42.264;23.826;2023-02-12T09:10:21;94767.75;;;0.24;64.99
61870;BME280;47810;42.264;23.826;2023-02-12T09:12:49;94779.03;;;0.21;66.10
61870;BME280;47810;42.264;23.826;2023-02-12T09:21:24;94782.09;;;0.57;63.92
61870;BME280;47810;42.264;23.826;2023-02-12T09:23:56;94787.13;;;0.69;64.23
61870;BME280;47810;42.264;23.826;2023-02-12T09:26:24;94786.28;;;0.69;63.71
61870;BME280;47810;42.264;23.826;2023-02-12T09:28:52;94794.97;;;0.68;64.20
61870;BME280;47810;42.264;23.826;2023-02-12T09:31:20;94796.75;;;0.63;64.03
61870;BME280;47810;42.264;23.826;2023-02-12T09:33:47;94793.19;;;0.70;63.93
61870;BME280;47810;42.264;23.826;2023-02-12T09:36:14;94788.72;;;0.80;63.74
61870;BME280;47810;42.264;23.826;2023-02-12T09:38:42;94796.50;;;0.84;63.90
61870;BME280;47810;42.264;23.826;2023-02-12T09:41:17;94795.56;;;0.90;63.93
61870;BME280;47810;42.264;23.826;2023-02-12T09:44:10;94789.47;;;0.91;63.32
61870;BME280;47810;42.264;23.826;2023-02-12T09:46:46;94788.41;;;1.04;63.44
61870;BME280;47810;42.264;23.826;2023-02-12T09:51:54;94796.22;;;1.03;63.73
61870;BME280;47810;42.264;23.826;2023-02-12T09:54:36;94790.03;;;1.11;64.15
61870;BME280;47810;42.264;23.826;2023-02-12T10:00:03;94800.00;;;1.42;62.97
61870;BME280;47810;42.264;23.826;2023-02-12T10:02:46;94798.41;;;1.35;62.23
61870;BME280;47810;42.264;23.826;2023-02-12T10:05:16;94796.53;;;1.43;62.86
61870;BME280;47810;42.264;23.826;2023-02-12T10:26:56;94785.25;;;1.95;61.28
61870;BME280;47810;42.264;23.826;2023-02-12T10:29:25;94784.19;;;2.07;61.50
61870;BME280;47810;42.264;23.826;2023-02-12T10:31:56;94779.56;;;2.21;60.20
61870;BME280;47810;42.264;23.826;2023-02-12T10:34:35;94784.88;;;2.17;59.70
61870;BME280;47810;42.264;23.826;2023-02-12T10:37:10;94787.84;;;2.45;59.25
61870;BME280;47810;42.264;23.826;2023-02-12T10:39:40;94783.66;;;2.36;59.52
61870;BME280;47810;42.264;23.826;2023-02-12T10:44:41;94789.44;;;2.50;59.21
61870;BME280;47810;42.264;23.826;2023-02-12T10:47:16;94786.16;;;3.26;57.58
61870;BME280;47810;42.264;23.826;2023-02-12T10:49:44;94789.81;;;3.19;56.62
61870;BME280;47810;42.264;23.826;2023-02-12T10:54:59;94794.53;;;3.00;57.51
61870;BME280;47810;42.264;23.826;2023-02-12T10:57:30;94787.84;;;3.29;57.53
61870;BME280;47810;42.264;23.826;2023-02-12T11:00:16;94788.38;;;3.80;56.06
61870;BME280;47810;42.264;23.826;2023-02-12T11:05:28;94781.59;;;3.73;54.99
61870;BME280;47810;42.264;23.826;2023-02-12T11:07:56;94793.06;;;3.66;55.71
61870;BME280;47810;42.264;23.826;2023-02-12T11:18:36;94814.16;;;2.76;57.60
61870;BME280;47810;42.264;23.826;2023-02-12T11:21:16;94814.81;;;2.87;57.27
61870;BME280;47810;42.264;23.826;2023-02-12T11:26:40;94815.91;;;2.75;57.65
61870;BME280;47810;42.264;23.826;2023-02-12T11:35:14;94815.22;;;2.66;58.17
61870;BME280;47810;42.264;23.826;2023-02-12T11:42:46;94809.19;;;2.64;58.62
61870;BME280;47810;42.264;23.826;2023-02-12T11:45:17;94807.63;;;2.55;59.13
61870;BME280;47810;42.264;23.826;2023-02-12T11:47:45;94810.13;;;2.60;59.28
61870;BME280;47810;42.264;23.826;2023-02-12T11:50:19;94820.31;;;2.72;58.74
61870;BME280;47810;42.264;23.826;2023-02-12T11:56:09;94811.00;;;2.60;58.84
61870;BME280;47810;42.264;23.826;2023-02-12T11:58:34;94803.09;;;2.65;58.85
61870;BME280;47810;42.264;23.826;2023-02-12T12:12:50;94826.09;;;2.44;59.71
61870;BME280;47810;42.264;23.826;2023-02-12T12:15:27;94829.59;;;2.40;59.76
61870;BME280;47810;42.264;23.826;2023-02-12T12:30:52;94836.47;;;2.46;60.28
61870;BME280;47810;42.264;23.826;2023-02-12T13:10:44;94869.44;;;2.47;61.01
61870;BME280;47810;42.264;23.826;2023-02-12T13:34:48;94898.06;;;2.50;61.56
61870;BME280;47810;42.264;23.826;2023-02-12T13:37:16;94896.03;;;2.66;61.67
61870;BME280;47810;42.264;23.826;2023-02-12T13:39:58;94896.94;;;2.65;60.74
61870;BME280;47810;42.264;23.826;2023-02-12T13:48:17;94908.38;;;2.56;61.41
61870;BME280;47810;42.264;23.826;2023-02-12T13:58:51;94915.84;;;2.26;60.37
61870;BME280;47810;42.264;23.826;2023-02-12T14:06:51;94917.06;;;2.58;60.34
61870;BME280;47810;42.264;23.826;2023-02-12T14:09:20;94923.63;;;2.28;60.08
61870;BME280;47810;42.264;23.826;2023-02-12T14:11:50;94927.88;;;2.33;59.65
61870;BME280;47810;42.264;23.826;2023-02-12T14:36:37;94965.38;;;2.25;59.69
61870;BME280;47810;42.264;23.826;2023-02-12T14:58:14;95003.50;;;1.69;62.57
61870;BME280;47810;42.264;23.826;2023-02-12T15:09:20;95016.50;;;1.69;62.42
61870;BME280;47810;42.264;23.826;2023-02-12T15:24:29;95055.00;;;1.42;63.70
61870;BME280;47810;42.264;23.826;2023-02-12T15:26:56;95064.38;;;1.57;63.68
61870;BME280;47810;42.264;23.826;2023-02-12T15:29:29;95068.78;;;1.50;64.05
61870;BME280;47810;42.264;23.826;2023-02-12T15:37:29;95071.38;;;1.52;64.26
61870;BME280;47810;42.264;23.826;2023-02-12T15:40:02;95086.13;;;1.51;63.98
61870;BME280;47810;42.264;23.826;2023-02-12T15:48:48;95096.63;;;1.42;64.04
61870;BME280;47810;42.264;23.826;2023-02-12T15:57:21;95114.09;;;1.28;64.84
61870;BME280;47810;42.264;23.826;2023-02-12T15:59:53;95113.13;;;1.39;65.32
61870;BME280;47810;42.264;23.826;2023-02-12T16:05:05;95112.56;;;1.05;65.34
61870;BME280;47810;42.264;23.826;2023-02-12T16:10:58;95135.03;;;1.15;65.78
61870;BME280;47810;42.264;23.826;2023-02-12T16:13:31;95141.03;;;1.24;65.20
61870;BME280;47810;42.264;23.826;2023-02-12T16:18:39;95140.31;;;1.09;65.69
61870;BME280;47810;42.264;23.826;2023-02-12T16:21:17;95145.56;;;1.03;66.10
61870;BME280;47810;42.264;23.826;2023-02-12T16:23:46;95152.50;;;0.98;65.71
61870;BME280;47810;42.264;23.826;2023-02-12T16:37:42;95168.00;;;1.13;66.22
61870;BME280;47810;42.264;23.826;2023-02-12T16:48:51;95186.97;;;1.25;65.49
61870;BME280;47810;42.264;23.826;2023-02-12T16:54:01;95190.50;;;1.17;64.83
61870;BME280;47810;42.264;23.826;2023-02-12T16:56:28;95194.97;;;1.00;65.53
61870;BME280;47810;42.264;23.826;2023-02-12T16:58:58;95198.41;;;1.02;65.54
61870;BME280;47810;42.264;23.826;2023-02-12T17:03:55;95203.56;;;1.08;65.68
61870;BME280;47810;42.264;23.826;2023-02-12T17:06:24;95209.66;;;1.07;65.99
61870;BME280;47810;42.264;23.826;2023-02-12T17:08:54;95205.25;;;1.15;65.39
61870;BME280;47810;42.264;23.826;2023-02-12T17:11:21;95207.94;;;1.05;65.97
61870;BME280;47810;42.264;23.826;2023-02-12T17:13:49;95207.94;;;1.06;65.84
61870;BME280;47810;42.264;23.826;2023-02-12T17:16:17;95214.03;;;1.04;66.16
61870;BME280;47810;42.264;23.826;2023-02-12T17:18:47;95220.06;;;1.04;66.18
61870;BME280;47810;42.264;23.826;2023-02-12T17:23:53;95228.63;;;1.23;65.09
61870;BME280;47810;42.264;23.826;2023-02-12T17:26:21;95238.09;;;1.30;64.83
61870;BME280;47810;42.264;23.826;2023-02-12T17:28:49;95232.16;;;1.11;65.13
61870;BME280;47810;42.264;23.826;2023-02-12T17:33:53;95239.88;;;1.24;65.36
61870;BME280;47810;42.264;23.826;2023-02-12T17:36:19;95252.09;;;1.14;65.67
61870;BME280;47810;42.264;23.826;2023-02-12T17:38:59;95253.72;;;1.32;64.80
61870;BME280;47810;42.264;23.826;2023-02-12T17:41:31;95254.59;;;1.28;64.25
61870;BME280;47810;42.264;23.826;2023-02-12T17:43:56;95254.59;;;1.29;64.11
61870;BME280;47810;42.264;23.826;2023-02-12T17:46:23;95258.84;;;1.38;64.31
61870;BME280;47810;42.264;23.826;2023-02-12T17:48:49;95256.28;;;1.35;64.58
61870;BME280;47810;42.264;23.826;2023-02-12T17:51:15;95260.59;;;1.39;64.71
61870;BME280;47810;42.264;23.826;2023-02-12T17:53:50;95261.34;;;1.53;64.82
61870;BME280;47810;42.264;23.826;2023-02-12T17:56:17;95268.47;;;1.30;65.04
61870;BME280;47810;42.264;23.826;2023-02-12T17:58:45;95268.44;;;1.33;64.60
61870;BME280;47810;42.264;23.826;2023-02-12T18:01:11;95271.16;;;1.19;64.93
61870;BME280;47810;42.264;23.826;2023-02-12T18:03:39;95278.13;;;1.09;65.35
61870;BME280;47810;42.264;23.826;2023-02-12T18:11:20;95290.22;;;1.16;64.98
61870;BME280;47810;42.264;23.826;2023-02-12T18:13:55;95289.34;;;1.17;65.16
61870;BME280;47810;42.264;23.826;2023-02-12T18:16:33;95287.44;;;1.41;64.75
61870;BME280;47810;42.264;23.826;2023-02-12T18:19:10;95294.50;;;1.27;65.05
61870;BME280;47810;42.264;23.826;2023-02-12T18:26:42;95299.75;;;1.17;65.72
61870;BME280;47810;42.264;23.826;2023-02-12T18:29:08;95288.47;;;1.17;65.89
61870;BME280;47810;42.264;23.826;2023-02-12T18:31:44;95291.88;;;1.30;66.95
61870;BME280;47810;42.264;23.826;2023-02-12T18:34:27;95299.63;;;1.36;66.06
61870;BME280;47810;42.264;23.826;2023-02-12T18:36:54;95299.66;;;1.33;65.96
61870;BME280;47810;42.264;23.826;2023-02-12T18:39:20;95298.75;;;1.42;66.02
61870;BME280;47810;42.264;23.826;2023-02-12T18:44:42;95299.69;;;1.30;66.25
61870;BME280;47810;42.264;23.826;2023-02-12T18:47:09;95300.63;;;1.16;66.44
61870;BME280;47810;42.264;23.826;2023-02-12T18:49:35;95298.06;;;1.10;66.58
61870;BME280;47810;42.264;23.826;2023-02-12T18:52:01;95298.97;;;1.03;67.43
61870;BME280;47810;42.264;23.826;2023-02-12T18:54:27;95303.31;;;0.98;67.07
61870;BME280;47810;42.264;23.826;2023-02-12T18:56:52;95294.59;;;1.11;66.84
61870;BME280;47810;42.264;23.826;2023-02-12T18:59:20;95296.34;;;1.12;66.74
61870;BME280;47810;42.264;23.826;2023-02-12T19:01:55;95294.53;;;1.17;66.63
61870;BME280;47810;42.264;23.826;2023-02-12T19:04:21;95306.75;;;1.06;66.67
61870;BME280;47810;42.264;23.826;2023-02-12T19:06:49;95317.13;;;1.12;66.72
61870;BME280;47810;42.264;23.826;2023-02-12T19:09:18;95322.38;;;1.06;66.55
61870;BME280;47810;42.264;23.826;2023-02-12T19:11:46;95316.25;;;1.16;66.76
61870;BME280;47810;42.264;23.826;2023-02-12T19:14:13;95317.00;;;1.31;65.92
61870;BME280;47810;42.264;23.826;2023-02-12T19:16:40;95316.22;;;1.15;65.75
61870;BME280;47810;42.264;23.826;2023-02-12T19:19:07;95317.03;;;1.28;65.73
61870;BME280;47810;42.264;23.826;2023-02-12T19:21:33;95316.25;;;1.12;65.50
61870;BME280;47810;42.264;23.826;2023-02-12T19:24:00;95315.19;;;1.45;66.27